Time;durP1;ratioP1;P1;durP2;ratioP2;P2;SDS_P1;SDS_P2;PMS_P1;PMS_P2;Temp;Humidity;BMP_temperature;BMP_pressure;BME280_temperature;BME280_humidity;BME280_pressure;Samples;Min_cycle;Max_cycle;Signal;HPM_P1;HPM_P2
2021/05/01 00:03:07;;;;;;;13.10;8.70;;;;;;;;;;8325388;28;20066;-69
2021/05/01 00:07:12;;;;;;;12.63;8.70;;;;;;;;;;8323400;28;20482;-69
2021/05/01 00:11:18;;;;;;;13.85;8.77;;;;;;;;;;8323738;28;20520;-70
2021/05/01 00:15:21;;;;;;;14.45;9.25;;;;;;;;;;8323478;28;20342;-69
2021/05/01 00:19:26;;;;;;;15.20;10.23;;;;;;;;;;8322859;28;20463;-69
2021/05/01 00:23:31;;;;;;;13.55;8.93;;;;;;;;;;8324067;28;20048;-69
2021/05/01 00:27:36;;;;;;;14.32;8.88;;;;;;;;;;8325503;28;20371;-69
2021/05/01 00:31:39;;;;;;;12.57;8.88;;;;;;;;;;8305889;28;20369;-69
2021/05/01 00:35:49;;;;;;;16.23;9.13;;;;;;;;;;8322479;28;20386;-68
2021/05/01 00:39:53;;;;;;;14.15;9.27;;;;;;;;;;8323563;28;20386;-68
2021/05/01 00:43:58;;;;;;;13.48;9.13;;;;;;;;;;8324921;28;20459;-68
2021/05/01 00:48:03;;;;;;;11.68;8.40;;;;;;;;;;8323648;28;20740;-68
2021/05/01 00:52:08;;;;;;;12.10;8.85;;;;;;;;;;8323477;28;20336;-69
2021/05/01 00:56:13;;;;;;;12.98;9.23;;;;;;;;;;8305541;28;20351;-68
2021/05/01 01:00:35;;;;;;;15.75;9.27;;;;;;;;;;8306403;28;20416;-68
2021/05/01 01:04:38;;;;;;;13.35;8.88;;;;;;;;;;8311901;28;20359;-68
2021/05/01 01:08:44;;;;;;;15.40;9.32;;;;;;;;;;8323356;28;20052;-69
2021/05/01 01:12:49;;;;;;;13.93;9.52;;;;;;;;;;8324034;28;20467;-68
2021/05/01 01:16:53;;;;;;;14.85;10.70;;;;;;;;;;8328833;28;20056;-68
2021/05/01 01:21:00;;;;;;;13.80;9.40;;;;;;;;;;8310859;28;20355;-68
2021/05/01 01:25:03;;;;;;;15.43;9.98;;;;;;;;;;8328620;28;20060;-68
2021/05/01 01:29:12;;;;;;;13.95;9.30;;;;;;;;;;8310890;28;20350;-69
2021/05/01 01:33:17;;;;;;;12.88;8.65;;;;;;;;;;8328138;28;20656;-69
2021/05/01 01:37:20;;;;;;;14.20;9.23;;;;;;;;;;8295886;28;20509;-68
2021/05/01 01:41:25;;;;;;;15.40;8.80;;;;;;;;;;8294866;28;20467;-70
2021/05/01 01:45:30;;;;;;;14.43;9.60;;;;;;;;;;8294205;28;20467;-69
2021/05/01 01:49:37;;;;;;;14.13;8.93;;;;;;;;;;8296309;28;20490;-68
2021/05/01 01:53:42;;;;;;;18.20;8.82;;;;;;;;;;8295969;28;20444;-69
2021/05/01 01:57:48;;;;;;;12.57;8.05;;;;;;;;;;8294645;28;20478;-68
2021/05/01 02:01:52;;;;;;;10.10;7.85;;;;;;;;;;8294070;28;20071;-68
2021/05/01 02:05:56;;;;;;;12.75;8.63;;;;;;;;;;8294238;28;20398;-68
2021/05/01 02:10:01;;;;;;;11.63;7.90;;;;;;;;;;8294490;28;20458;-69
2021/05/01 02:14:06;;;;;;;11.43;8.18;;;;;;;;;;8293170;28;20386;-68
2021/05/01 02:18:10;;;;;;;9.68;7.22;;;;;;;;;;8295365;28;20417;-68
2021/05/01 02:22:15;;;;;;;9.60;7.22;;;;;;;;;;8295485;28;20048;-68
2021/05/01 02:26:19;;;;;;;12.00;7.55;;;;;;;;;;8292069;28;20379;-69
2021/05/01 02:30:26;;;;;;;9.95;7.10;;;;;;;;;;8292714;28;20376;-68
2021/05/01 02:34:29;;;;;;;9.05;6.38;;;;;;;;;;8301520;28;20346;-68
2021/05/01 02:38:33;;;;;;;16.67;7.05;;;;;;;;;;8327349;28;20478;-68
2021/05/01 02:42:40;;;;;;;13.48;7.60;;;;;;;;;;8326217;28;20367;-68
2021/05/01 02:46:43;;;;;;;10.68;7.13;;;;;;;;;;8325342;28;20056;-68
2021/05/01 02:50:47;;;;;;;11.90;7.07;;;;;;;;;;8325567;28;20070;-68
2021/05/01 02:54:51;;;;;;;9.88;6.57;;;;;;;;;;8307895;28;20375;-69
2021/05/01 02:58:56;;;;;;;11.98;6.57;;;;;;;;;;8306843;28;20367;-68
2021/05/01 03:03:00;;;;;;;11.65;7.10;;;;;;;;;;8325352;28;20363;-69
2021/05/01 03:07:04;;;;;;;10.48;6.82;;;;;;;;;;8325332;28;20371;-68
2021/05/01 03:11:10;;;;;;;10.00;6.80;;;;;;;;;;8325094;28;20351;-69
2021/05/01 03:15:15;;;;;;;11.85;6.68;;;;;;;;;;8325027;28;20383;-68
2021/05/01 03:19:21;;;;;;;15.07;6.88;;;;;;;;;;8308205;28;20443;-68
2021/05/01 03:23:27;;;;;;;9.57;6.43;;;;;;;;;;8325716;28;20383;-71
2021/05/01 03:27:31;;;;;;;7.97;5.55;;;;;;;;;;8306916;28;20336;-68
2021/05/01 03:31:35;;;;;;;9.15;5.88;;;;;;;;;;8324647;28;20048;-69
2021/05/01 03:35:40;;;;;;;8.02;6.10;;;;;;;;;;8323535;28;20052;-69
2021/05/01 03:39:44;;;;;;;9.52;6.57;;;;;;;;;;8306323;28;20372;-68
2021/05/01 03:43:48;;;;;;;8.20;6.05;;;;;;;;;;8324835;28;20365;-68
2021/05/01 03:47:53;;;;;;;9.35;5.78;;;;;;;;;;8325713;28;20344;-68
2021/05/01 03:51:58;;;;;;;9.05;6.60;;;;;;;;;;8325771;28;20405;-70
2021/05/01 03:56:02;;;;;;;8.98;6.25;;;;;;;;;;8323818;28;20635;-69
2021/05/01 04:00:07;;;;;;;9.18;6.55;;;;;;;;;;8323631;28;20359;-68
2021/05/01 04:04:12;;;;;;;10.43;6.88;;;;;;;;;;8325614;28;20078;-68
2021/05/01 04:08:17;;;;;;;11.85;7.00;;;;;;;;;;8325386;28;20478;-68
2021/05/01 04:12:21;;;;;;;11.52;7.20;;;;;;;;;;8324264;28;20383;-68
2021/05/01 04:16:26;;;;;;;12.55;8.40;;;;;;;;;;8324589;28;20466;-69
2021/05/01 04:20:31;;;;;;;14.63;8.43;;;;;;;;;;8323057;28;20367;-68
2021/05/01 04:24:36;;;;;;;15.07;8.63;;;;;;;;;;8323572;28;20413;-70
2021/05/01 04:28:52;;;;;;;11.73;7.97;;;;;;;;;;8323590;28;20443;-69
2021/05/01 04:32:56;;;;;;;13.40;8.20;;;;;;;;;;8304664;28;20473;-68
2021/05/01 04:37:01;;;;;;;14.43;8.60;;;;;;;;;;8322903;28;20517;-69
2021/05/01 04:41:06;;;;;;;14.98;8.88;;;;;;;;;;8323050;28;20348;-68
2021/05/01 04:45:11;;;;;;;14.50;8.75;;;;;;;;;;8305417;28;20041;-69
2021/05/01 04:49:15;;;;;;;13.48;9.30;;;;;;;;;;8326653;28;20048;-68
2021/05/01 04:53:21;;;;;;;18.00;9.43;;;;;;;;;;8329594;28;20497;-70
2021/05/01 04:57:25;;;;;;;13.32;8.93;;;;;;;;;;8328852;28;20487;-68
2021/05/01 05:01:30;;;;;;;13.93;8.82;;;;;;;;;;8330078;28;20484;-69
2021/05/01 05:05:35;;;;;;;12.98;8.32;;;;;;;;;;8331338;28;20359;-68
2021/05/01 05:09:39;;;;;;;15.23;8.95;;;;;;;;;;8328470;28;20040;-69
2021/05/01 05:13:43;;;;;;;13.27;9.82;;;;;;;;;;8329443;28;20075;-69
2021/05/01 05:17:47;;;;;;;10.73;8.35;;;;;;;;;;8328341;28;20074;-69
2021/05/01 05:21:52;;;;;;;14.07;9.00;;;;;;;;;;8310427;28;20076;-69
2021/05/01 05:25:56;;;;;;;20.42;13.25;;;;;;;;;;8327848;28;20052;-69
2021/05/01 05:30:01;;;;;;;15.95;9.13;;;;;;;;;;8328141;28;20447;-69
2021/05/01 05:34:05;;;;;;;13.13;9.48;;;;;;;;;;8328563;28;20465;-69
2021/05/01 05:38:09;;;;;;;14.73;9.18;;;;;;;;;;8329455;28;20473;-69
2021/05/01 05:42:14;;;;;;;14.20;9.27;;;;;;;;;;8328443;28;20371;-68
2021/05/01 05:46:19;;;;;;;13.10;8.75;;;;;;;;;;8328924;28;20048;-69
2021/05/01 05:50:24;;;;;;;11.57;8.05;;;;;;;;;;8327532;28;20383;-69
2021/05/01 05:54:30;;;;;;;13.30;8.93;;;;;;;;;;8327005;28;20075;-70
2021/05/01 05:58:35;;;;;;;20.58;9.13;;;;;;;;;;8309085;28;20425;-69
2021/05/01 06:02:42;;;;;;;17.08;9.38;;;;;;;;;;8327334;28;20386;-69
2021/05/01 06:07:10;;;;;;;13.50;9.93;;;;;;;;;;8310071;28;20477;-69
2021/05/01 06:11:18;;;;;;;;;;;;;;;;;;8327941;28;20071;-69
2021/05/01 06:15:22;;;;;;;13.13;9.25;;;;;;;;;;8327391;28;19942;-68
2021/05/01 06:19:27;;;;;;;15.10;9.98;;;;;;;;;;8327735;28;20101;-69
2021/05/01 06:23:32;;;;;;;14.45;9.65;;;;;;;;;;8329546;28;20066;-68
2021/05/01 06:27:37;;;;;;;14.35;9.77;;;;;;;;;;8307899;28;20447;-68
2021/05/01 06:31:41;;;;;;;14.38;9.50;;;;;;;;;;8326651;28;20056;-68
2021/05/01 06:35:47;;;;;;;15.07;9.10;;;;;;;;;;8325631;28;20386;-68
2021/05/01 06:39:55;;;;;;;15.45;9.25;;;;;;;;;;8327740;28;20431;-68
2021/05/01 06:44:04;;;;;;;19.65;10.05;;;;;;;;;;8324871;28;20079;-68
2021/05/01 06:48:12;;;;;;;14.45;9.38;;;;;;;;;;8325499;28;20459;-69
2021/05/01 06:52:17;;;;;;;14.18;9.20;;;;;;;;;;8309208;28;20052;-69
2021/05/01 06:56:24;;;;;;;17.58;10.05;;;;;;;;;;8326138;28;20354;-68
2021/05/01 07:00:30;;;;;;;14.85;10.02;;;;;;;;;;8308031;28;20351;-69
2021/05/01 07:04:34;;;;;;;12.43;9.25;;;;;;;;;;8325126;28;20443;-68
2021/05/01 07:08:40;;;;;;;14.32;10.65;;;;;;;;;;8307276;28;20463;-68
2021/05/01 07:12:44;;;;;;;15.35;10.82;;;;;;;;;;8304698;28;20447;-69
2021/05/01 07:16:47;;;;;;;17.42;12.18;;;;;;;;;;8326173;28;20350;-69
2021/05/01 07:20:56;;;;;;;31.33;15.90;;;;;;;;;;8324348;28;20470;-70
2021/05/01 07:25:02;;;;;;;;;;;;;;;;;;8325352;28;20401;-69
2021/05/01 07:29:09;;;;;;;17.85;12.25;;;;;;;;;;8307461;28;20273;-69
2021/05/01 07:33:25;;;;;;;24.58;15.55;;;;;;;;;;8324548;28;20447;-68
2021/05/01 07:37:31;;;;;;;234.52;103.90;;;;;;;;;;8259226;28;20474;-69
2021/05/01 07:41:41;;;;;;;28.15;16.58;;;;;;;;;;8258106;28;20413;-69
2021/05/01 07:45:46;;;;;;;61.72;28.58;;;;;;;;;;8256330;28;20170;-69
2021/05/01 07:49:51;;;;;;;133.75;37.78;;;;;;;;;;8260512;28;20407;-68
2021/05/01 07:53:55;;;;;;;57.50;38.10;;;;;;;;;;8256628;28;20464;-68
2021/05/01 07:58:00;;;;;;;55.00;24.63;;;;;;;;;;8258732;28;20487;-69
2021/05/01 08:02:06;;;;;;;330.70;82.53;;;;;;;;;;8257626;28;20071;-70
2021/05/01 08:06:10;;;;;;;29.58;18.75;;;;;;;;;;8257963;28;20053;-70
2021/05/01 08:10:15;;;;;;;24.15;16.73;;;;;;;;;;8243491;28;20337;-69
2021/05/01 08:14:24;;;;;;;35.70;17.27;;;;;;;;;;8254790;28;20111;-69
2021/05/01 08:18:28;;;;;;;25.65;16.33;;;;;;;;;;8257489;28;20384;-70
2021/05/01 08:22:33;;;;;;;28.15;17.35;;;;;;;;;;8257209;28;20379;-72
2021/05/01 08:26:38;;;;;;;30.85;14.75;;;;;;;;;;8256599;28;20376;-72
2021/05/01 08:30:44;;;;;;;20.92;13.13;;;;;;;;;;8253985;28;20380;-73
2021/05/01 08:34:49;;;;;;;34.58;17.60;;;;;;;;;;8279487;28;20394;-72
2021/05/01 08:38:54;;;;;;;20.73;13.20;;;;;;;;;;8324484;28;20503;-72
2021/05/01 08:42:58;;;;;;;67.57;27.70;;;;;;;;;;8321571;28;20493;-72
2021/05/01 08:47:03;;;;;;;24.65;15.63;;;;;;;;;;8323165;28;20365;-72
2021/05/01 08:51:08;;;;;;;29.52;15.73;;;;;;;;;;8304082;28;20387;-72
2021/05/01 08:55:12;;;;;;;25.23;13.80;;;;;;;;;;8320862;28;20382;-72
2021/05/01 08:59:18;;;;;;;24.13;13.57;;;;;;;;;;8321663;28;20079;-72
2021/05/01 09:03:29;;;;;;;38.17;25.10;;;;;;;;;;8323615;28;20471;-72
2021/05/01 09:07:36;;;;;;;22.50;13.90;;;;;;;;;;8305077;28;20048;-72
2021/05/01 09:11:46;;;;;;;33.60;15.25;;;;;;;;;;8287405;28;20396;-72
2021/05/01 09:16:06;;;;;;;31.83;18.10;;;;;;;;;;8304866;28;20362;-73
2021/05/01 09:20:13;;;;;;;26.13;15.82;;;;;;;;;;8321188;28;20352;-72
2021/05/01 09:24:24;;;;;;;41.72;23.08;;;;;;;;;;8320641;28;20497;-72
2021/05/01 09:28:50;;;;;;;24.43;14.60;;;;;;;;;;8320599;28;20475;-71
2021/05/01 09:33:27;;;;;;;30.00;16.88;;;;;;;;;;8321031;28;20375;-72
2021/05/01 09:37:31;;;;;;;20.70;13.82;;;;;;;;;;8329102;28;20153;-71
2021/05/01 09:41:42;;;;;;;19.38;13.10;;;;;;;;;;8308915;28;20052;-72
2021/05/01 09:45:47;;;;;;;25.33;14.38;;;;;;;;;;8310084;28;20397;-71
2021/05/01 09:49:51;;;;;;;52.08;21.15;;;;;;;;;;8309322;28;20435;-71
2021/05/01 09:54:00;;;;;;;54.63;21.02;;;;;;;;;;8326849;28;20505;-71
2021/05/01 09:58:16;;;;;;;39.42;17.35;;;;;;;;;;8327868;28;20397;-72
2021/05/01 10:02:34;;;;;;;52.30;24.15;;;;;;;;;;8328759;28;20447;-71
2021/05/01 10:06:49;;;;;;;26.20;14.57;;;;;;;;;;8327227;28;20478;-71
2021/05/01 10:10:54;;;;;;;113.80;44.95;;;;;;;;;;8327043;28;20510;-71
2021/05/01 10:15:23;;;;;;;103.43;41.15;;;;;;;;;;8326693;28;20454;-70
2021/05/01 10:19:57;;;;;;;20.35;13.45;;;;;;;;;;8310692;28;20474;-71
2021/05/01 10:24:04;;;;;;;29.10;17.50;;;;;;;;;;8327591;28;20074;-72
2021/05/01 10:28:13;;;;;;;25.58;16.83;;;;;;;;;;8326352;28;20454;-71
2021/05/01 10:32:29;;;;;;;23.13;14.75;;;;;;;;;;8326394;28;20414;-70
2021/05/01 10:36:35;;;;;;;47.70;24.88;;;;;;;;;;8327031;28;20460;-70
2021/05/01 10:40:47;;;;;;;45.95;23.92;;;;;;;;;;8308881;28;20078;-70
2021/05/01 10:44:56;;;;;;;22.02;15.52;;;;;;;;;;8325474;28;20071;-72
2021/05/01 10:49:06;;;;;;;23.27;15.85;;;;;;;;;;8326659;28;20497;-71
2021/05/01 10:53:21;;;;;;;25.85;18.25;;;;;;;;;;8326532;28;20378;-71
2021/05/01 10:57:27;;;;;;;22.27;15.30;;;;;;;;;;8308116;28;20063;-71
2021/05/01 11:01:36;;;;;;;27.13;17.17;;;;;;;;;;8307693;28;20048;-71
2021/05/01 11:05:42;;;;;;;52.88;25.92;;;;;;;;;;8325353;28;20363;-71
2021/05/01 11:09:51;;;;;;;212.73;78.95;;;;;;;;;;8306924;28;20450;-70
2021/05/01 11:14:01;;;;;;;21.55;15.38;;;;;;;;;;8307773;28;20413;-70
2021/05/01 11:18:21;;;;;;;26.08;17.40;;;;;;;;;;8326968;28;20475;-71
2021/05/01 11:22:28;;;;;;;26.20;20.30;;;;;;;;;;8325013;28;20047;-70
2021/05/01 11:26:35;;;;;;;22.65;14.38;;;;;;;;;;8307425;28;20455;-71
2021/05/01 11:30:39;;;;;;;25.35;15.90;;;;;;;;;;8307040;28;20048;-70
2021/05/01 11:34:52;;;;;;;22.33;15.13;;;;;;;;;;8306751;28;20489;-70
2021/05/01 11:38:58;;;;;;;45.28;23.92;;;;;;;;;;8323364;28;20048;-70
2021/05/01 11:43:04;;;;;;;42.25;22.00;;;;;;;;;;8325399;28;20048;-70
2021/05/01 11:47:14;;;;;;;40.28;22.23;;;;;;;;;;8324181;28;20376;-70
2021/05/01 11:51:29;;;;;;;57.55;30.65;;;;;;;;;;8306842;28;20052;-70
2021/05/01 11:56:02;;;;;;;47.65;22.67;;;;;;;;;;8307804;28;20074;-71
2021/05/01 12:00:06;;;;;;;39.90;21.35;;;;;;;;;;8306162;28;20360;-71
2021/05/01 12:04:20;;;;;;;36.53;21.17;;;;;;;;;;8324025;28;20458;-70
2021/05/01 12:08:25;;;;;;;34.13;21.65;;;;;;;;;;8306222;28;20471;-70
2021/05/01 12:12:32;;;;;;;30.13;18.48;;;;;;;;;;8306127;28;20385;-71
2021/05/01 12:16:42;;;;;;;24.00;15.15;;;;;;;;;;8306489;28;20056;-70
2021/05/01 12:20:53;;;;;;;22.88;15.38;;;;;;;;;;8306273;28;20355;-70
2021/05/01 12:24:58;;;;;;;30.63;20.50;;;;;;;;;;8319538;28;20569;-73
2021/05/01 12:29:40;;;;;;;25.73;15.27;;;;;;;;;;8305657;28;20059;-70
2021/05/01 12:33:44;;;;;;;27.52;17.08;;;;;;;;;;8276134;28;20409;-71
2021/05/01 12:37:48;;;;;;;24.90;14.57;;;;;;;;;;8257525;28;20505;-70
2021/05/01 12:41:52;;;;;;;24.95;15.25;;;;;;;;;;8259448;28;20076;-70
2021/05/01 12:46:15;;;;;;;27.60;15.48;;;;;;;;;;8257873;28;20075;-71
2021/05/01 12:50:23;;;;;;;28.67;18.25;;;;;;;;;;8255717;28;20056;-70
2021/05/01 12:54:32;;;;;;;28.10;16.88;;;;;;;;;;8256155;28;20407;-70
2021/05/01 12:58:48;;;;;;;31.75;17.30;;;;;;;;;;8253356;28;20048;-70
2021/05/01 13:03:04;;;;;;;24.05;14.90;;;;;;;;;;8255403;28;20080;-71
2021/05/01 13:07:11;;;;;;;23.52;14.90;;;;;;;;;;8255765;28;20052;-70
2021/05/01 13:11:17;;;;;;;20.40;14.15;;;;;;;;;;8261639;28;20376;-70
2021/05/01 13:15:22;;;;;;;22.73;14.57;;;;;;;;;;8262016;28;20061;-71
2021/05/01 13:19:56;;;;;;;;;;;;;;;;;;8263151;28;20468;-71
2021/05/01 13:24:00;;;;;;;26.60;14.48;;;;;;;;;;8263174;28;20357;-72
2021/05/01 13:28:11;;;;;;;19.15;13.35;;;;;;;;;;8262689;28;20375;-71
2021/05/01 13:32:16;;;;;;;37.40;22.23;;;;;;;;;;8262361;28;20472;-71
2021/05/01 13:36:22;;;;;;;23.83;14.15;;;;;;;;;;8281673;28;20091;-70
2021/05/01 13:40:31;;;;;;;22.25;14.98;;;;;;;;;;8293826;28;20405;-71
2021/05/01 13:44:44;;;;;;;25.20;14.45;;;;;;;;;;8296217;28;20444;-71
2021/05/01 13:48:54;;;;;;;22.67;13.77;;;;;;;;;;8291777;28;20390;-71
2021/05/01 13:53:05;;;;;;;26.77;15.90;;;;;;;;;;8294042;28;20048;-70
2021/05/01 13:57:11;;;;;;;24.45;15.88;;;;;;;;;;8294259;28;20053;-72
2021/05/01 14:01:15;;;;;;;24.85;15.23;;;;;;;;;;8292053;28;20387;-71
2021/05/01 14:05:29;;;;;;;22.88;15.07;;;;;;;;;;8291893;28;20391;-71
2021/05/01 14:09:34;;;;;;;23.50;15.38;;;;;;;;;;8292746;28;20372;-71
2021/05/01 14:13:39;;;;;;;31.13;16.80;;;;;;;;;;8292777;28;20078;-70
2021/05/01 14:17:44;;;;;;;28.02;15.70;;;;;;;;;;8293947;28;20383;-72
2021/05/01 14:21:53;;;;;;;20.77;14.32;;;;;;;;;;8293219;28;20067;-71
2021/05/01 14:25:57;;;;;;;;;;;;;;;;;;8292854;28;20101;-70
2021/05/01 14:30:01;;;;;;;29.23;17.08;;;;;;;;;;8293534;28;20331;-70
2021/05/01 14:34:06;;;;;;;34.38;18.73;;;;;;;;;;8294241;28;20379;-70
2021/05/01 14:38:10;;;;;;;36.63;22.50;;;;;;;;;;8307835;28;20378;-70
2021/05/01 14:42:16;;;;;;;32.72;19.20;;;;;;;;;;8309288;28;20340;-72
2021/05/01 14:46:24;;;;;;;23.02;15.73;;;;;;;;;;8308854;28;20479;-70
2021/05/01 14:50:33;;;;;;;44.90;33.20;;;;;;;;;;8309987;28;20457;-70
2021/05/01 14:54:44;;;;;;;80.45;62.90;;;;;;;;;;8325803;28;20492;-70
2021/05/01 14:58:53;;;;;;;53.20;36.80;;;;;;;;;;8307872;28;20348;-70
2021/05/01 15:02:59;;;;;;;35.28;24.48;;;;;;;;;;8307466;28;20386;-70
2021/05/01 15:07:04;;;;;;;39.45;24.50;;;;;;;;;;8327230;28;20465;-70
2021/05/01 15:11:15;;;;;;;23.15;14.98;;;;;;;;;;8308231;28;20390;-71
2021/05/01 15:15:40;;;;;;;31.27;20.35;;;;;;;;;;8324580;28;20463;-71
2021/05/01 15:19:45;;;;;;;22.23;14.65;;;;;;;;;;8322452;28;20374;-71
2021/05/01 15:23:52;;;;;;;22.23;14.02;;;;;;;;;;8304897;28;20458;-72
2021/05/01 15:27:56;;;;;;;22.15;15.88;;;;;;;;;;8289520;28;20356;-71
2021/05/01 15:32:00;;;;;;;26.02;14.70;;;;;;;;;;8323259;28;20337;-70
2021/05/01 15:36:09;;;;;;;21.55;14.23;;;;;;;;;;8288378;28;20074;-71
2021/05/01 15:40:15;;;;;;;22.20;15.25;;;;;;;;;;8292490;28;20455;-70
2021/05/01 15:44:20;;;;;;;36.80;20.42;;;;;;;;;;8289892;28;20371;-71
2021/05/01 15:48:29;;;;;;;48.28;22.05;;;;;;;;;;8290707;28;20459;-71
2021/05/01 15:52:33;;;;;;;31.95;17.15;;;;;;;;;;8290652;28;20489;-70
2021/05/01 15:56:43;;;;;;;25.02;15.50;;;;;;;;;;8289271;28;20056;-71
2021/05/01 16:00:47;;;;;;;36.25;20.08;;;;;;;;;;8288290;28;20383;-70
2021/05/01 16:04:52;;;;;;;26.95;16.90;;;;;;;;;;8289114;28;20375;-71
2021/05/01 16:09:06;;;;;;;52.30;23.45;;;;;;;;;;8289420;28;20372;-70
2021/05/01 16:13:11;;;;;;;42.90;22.60;;;;;;;;;;8290514;28;20048;-71
2021/05/01 16:17:15;;;;;;;56.45;27.02;;;;;;;;;;8287918;28;20488;-70
2021/05/01 16:21:19;;;;;;;65.85;32.70;;;;;;;;;;8288701;28;20448;-70
2021/05/01 16:25:31;;;;;;;122.68;65.05;;;;;;;;;;8289243;28;20490;-70
2021/05/01 16:29:37;;;;;;;43.03;22.75;;;;;;;;;;8288715;28;20149;-70
2021/05/01 16:33:41;;;;;;;45.05;23.70;;;;;;;;;;8290343;28;20355;-70
2021/05/01 16:37:47;;;;;;;37.38;22.52;;;;;;;;;;8322652;28;20075;-71
2021/05/01 16:41:52;;;;;;;38.15;22.05;;;;;;;;;;8322037;28;20060;-71
2021/05/01 16:45:56;;;;;;;33.53;19.92;;;;;;;;;;8327970;28;20381;-71
2021/05/01 16:50:00;;;;;;;68.45;33.67;;;;;;;;;;8312545;28;20489;-70
2021/05/01 16:54:04;;;;;;;81.45;35.60;;;;;;;;;;8328917;28;20482;-70
2021/05/01 16:58:09;;;;;;;59.47;34.35;;;;;;;;;;8310980;28;20481;-70
2021/05/01 17:02:13;;;;;;;60.47;38.90;;;;;;;;;;8331724;28;20339;-70
2021/05/01 17:06:18;;;;;;;75.55;44.38;;;;;;;;;;8329025;28;20359;-70
2021/05/01 17:10:22;;;;;;;53.47;29.55;;;;;;;;;;8310858;28;20438;-70
2021/05/01 17:14:27;;;;;;;63.28;35.05;;;;;;;;;;8329144;28;20067;-70
2021/05/01 17:18:31;;;;;;;51.13;28.02;;;;;;;;;;8328388;28;20362;-72
2021/05/01 17:22:36;;;;;;;52.33;28.67;;;;;;;;;;8309723;28;20078;-70
2021/05/01 17:26:40;;;;;;;46.72;24.88;;;;;;;;;;8327778;28;20078;-70
2021/05/01 17:30:45;;;;;;;40.47;23.58;;;;;;;;;;8329065;28;20449;-70
2021/05/01 17:34:49;;;;;;;60.15;35.88;;;;;;;;;;8326944;28;20475;-70
2021/05/01 17:38:53;;;;;;;51.40;31.70;;;;;;;;;;8327701;28;20477;-71
2021/05/01 17:42:58;;;;;;;41.90;25.80;;;;;;;;;;8329086;28;20359;-71
2021/05/01 17:47:02;;;;;;;42.78;27.85;;;;;;;;;;8327413;28;20336;-70
2021/05/01 17:51:07;;;;;;;69.40;41.13;;;;;;;;;;8327725;28;20462;-70
2021/05/01 17:55:15;;;;;;;54.55;36.05;;;;;;;;;;8327182;28;20052;-70
2021/05/01 17:59:20;;;;;;;38.35;24.65;;;;;;;;;;8327345;28;20359;-71
2021/05/01 18:03:25;;;;;;;42.40;26.17;;;;;;;;;;8308143;28;20418;-70
2021/05/01 18:07:29;;;;;;;47.85;28.00;;;;;;;;;;8328897;28;20458;-70
2021/05/01 18:11:33;;;;;;;58.75;35.60;;;;;;;;;;8309395;28;20366;-70
2021/05/01 18:15:37;;;;;;;110.13;60.80;;;;;;;;;;8324255;28;20371;-71
2021/05/01 18:19:41;;;;;;;48.28;28.58;;;;;;;;;;8326690;28;20056;-70
2021/05/01 18:23:46;;;;;;;60.30;34.92;;;;;;;;;;8308952;28;20523;-70
2021/05/01 18:27:50;;;;;;;131.65;54.33;;;;;;;;;;8326240;28;20344;-71
2021/05/01 18:31:54;;;;;;;167.98;71.82;;;;;;;;;;8326678;28;20491;-70
2021/05/01 18:35:59;;;;;;;55.65;29.70;;;;;;;;;;8326513;28;20470;-70
2021/05/01 18:40:07;;;;;;;49.47;29.00;;;;;;;;;;8326148;28;20374;-70
2021/05/01 18:44:16;;;;;;;49.42;26.75;;;;;;;;;;8308656;28;20463;-75
2021/05/01 18:48:19;;;;;;;48.40;26.70;;;;;;;;;;8326252;28;20386;-70
2021/05/01 18:52:23;;;;;;;50.90;26.08;;;;;;;;;;8324901;28;20356;-70
2021/05/01 18:56:28;;;;;;;61.00;31.00;;;;;;;;;;8307514;28;20501;-71
2021/05/01 19:00:33;;;;;;;58.65;29.52;;;;;;;;;;8325353;28;20512;-70
2021/05/01 19:04:37;;;;;;;60.70;31.25;;;;;;;;;;8325701;28;20052;-70
2021/05/01 19:08:41;;;;;;;48.03;27.50;;;;;;;;;;8324340;28;20052;-70
2021/05/01 19:13:28;;;;;;;43.38;26.10;;;;;;;;;;8323468;28;20444;-71
2021/05/01 19:17:33;;;;;;;42.22;26.23;;;;;;;;;;8326735;28;20471;-70
2021/05/01 19:21:38;;;;;;;50.38;27.70;;;;;;;;;;8324632;28;20375;-70
2021/05/01 19:25:48;;;;;;;57.17;29.77;;;;;;;;;;8325794;28;20401;-70
2021/05/01 19:29:53;;;;;;;54.28;29.65;;;;;;;;;;8307163;28;20078;-71
2021/05/01 19:33:58;;;;;;;63.05;32.92;;;;;;;;;;8324203;28;20347;-70
2021/05/01 19:38:01;;;;;;;44.55;25.55;;;;;;;;;;8290032;28;20367;-70
2021/05/01 19:42:06;;;;;;;48.28;25.23;;;;;;;;;;8324304;28;20052;-70
2021/05/01 19:46:14;;;;;;;51.00;27.08;;;;;;;;;;8321810;28;20044;-70
2021/05/01 19:50:18;;;;;;;45.90;26.98;;;;;;;;;;8325453;28;20107;-71
2021/05/01 19:54:22;;;;;;;48.03;28.20;;;;;;;;;;8323931;28;20059;-70
2021/05/01 19:58:28;;;;;;;63.85;32.80;;;;;;;;;;8324158;28;20051;-69
2021/05/01 20:02:33;;;;;;;53.95;27.77;;;;;;;;;;8325380;28;20048;-71
2021/05/01 20:06:38;;;;;;;41.90;23.85;;;;;;;;;;8323126;28;20056;-70
2021/05/01 20:10:43;;;;;;;39.47;23.70;;;;;;;;;;8323884;28;20122;-70
2021/05/01 20:14:48;;;;;;;36.92;22.40;;;;;;;;;;8305949;28;20455;-71
2021/05/01 20:18:53;;;;;;;42.28;23.55;;;;;;;;;;8323573;28;20052;-70
2021/05/01 20:22:58;;;;;;;45.08;24.05;;;;;;;;;;8323988;28;20070;-70
2021/05/01 20:27:03;;;;;;;41.75;23.08;;;;;;;;;;8323204;28;20358;-70
2021/05/01 20:31:09;;;;;;;48.55;26.13;;;;;;;;;;8324668;28;20397;-69
2021/05/01 20:35:14;;;;;;;40.63;24.23;;;;;;;;;;8305279;28;20463;-70
2021/05/01 20:39:19;;;;;;;42.83;23.80;;;;;;;;;;8306762;28;20531;-71
2021/05/01 20:43:30;;;;;;;42.47;23.17;;;;;;;;;;8304854;28;20074;-71
2021/05/01 20:47:33;;;;;;;36.22;23.35;;;;;;;;;;8323007;28;20062;-70
2021/05/01 20:51:40;;;;;;;36.75;23.25;;;;;;;;;;8321471;28;20473;-70
2021/05/01 20:55:44;;;;;;;33.17;21.85;;;;;;;;;;8323501;28;20425;-70
2021/05/01 20:59:49;;;;;;;39.92;23.88;;;;;;;;;;8324213;28;20386;-70
2021/05/01 21:03:54;;;;;;;39.30;23.33;;;;;;;;;;8324560;28;20070;-70
2021/05/01 21:07:59;;;;;;;39.65;23.38;;;;;;;;;;8288494;28;20048;-70
2021/05/01 21:12:03;;;;;;;38.42;23.00;;;;;;;;;;8288479;28;20363;-72
2021/05/01 21:16:08;;;;;;;37.13;24.10;;;;;;;;;;8322475;28;20405;-71
2021/05/01 21:20:13;;;;;;;36.40;22.85;;;;;;;;;;8322949;28;20347;-69
2021/05/01 21:24:17;;;;;;;36.45;22.90;;;;;;;;;;8323434;28;20044;-70
2021/05/01 21:28:21;;;;;;;37.03;23.02;;;;;;;;;;8323152;28;20356;-70
2021/05/01 21:32:26;;;;;;;36.92;23.08;;;;;;;;;;8327702;28;20356;-70
2021/05/01 21:36:30;;;;;;;61.28;35.92;;;;;;;;;;8292809;28;20048;-71
2021/05/01 21:40:36;;;;;;;39.22;22.67;;;;;;;;;;8293782;28;20428;-71
2021/05/01 21:44:40;;;;;;;38.30;24.10;;;;;;;;;;8309918;28;20494;-69
2021/05/01 21:48:47;;;;;;;39.13;23.80;;;;;;;;;;8292966;28;20048;-70
2021/05/01 21:52:51;;;;;;;38.75;22.23;;;;;;;;;;8294493;28;20114;-70
2021/05/01 21:56:55;;;;;;;37.63;21.85;;;;;;;;;;8294417;28;20455;-70
2021/05/01 22:01:05;;;;;;;40.25;24.23;;;;;;;;;;8295445;28;20472;-70
2021/05/01 22:05:10;;;;;;;36.78;23.77;;;;;;;;;;8296693;28;20475;-70
2021/05/01 22:09:16;;;;;;;36.42;23.73;;;;;;;;;;8294360;28;20457;-71
2021/05/01 22:13:22;;;;;;;39.72;23.25;;;;;;;;;;8293362;28;20481;-70
2021/05/01 22:17:29;;;;;;;39.28;22.58;;;;;;;;;;8310543;28;20087;-70
2021/05/01 22:21:45;;;;;;;40.92;24.90;;;;;;;;;;8293808;28;20470;-71
2021/05/01 22:25:54;;;;;;;41.90;23.90;;;;;;;;;;8293493;28;20363;-70
2021/05/01 22:29:58;;;;;;;;;;;;;;;;;;8292716;28;20375;-70
2021/05/01 22:34:03;;;;;;;41.75;23.95;;;;;;;;;;8293861;28;20320;-70
2021/05/01 22:38:07;;;;;;;40.13;24.90;;;;;;;;;;8309757;28;20376;-72
2021/05/01 22:42:12;;;;;;;44.08;25.75;;;;;;;;;;8326727;28;20458;-72
2021/05/01 22:46:21;;;;;;;43.92;26.15;;;;;;;;;;8326485;28;20458;-69
2021/05/01 22:50:28;;;;;;;40.28;24.08;;;;;;;;;;8325859;28;20381;-70
2021/05/01 22:54:34;;;;;;;44.20;25.57;;;;;;;;;;8308110;28;20674;-69
2021/05/01 22:58:38;;;;;;;46.15;25.75;;;;;;;;;;8325680;28;20478;-71
2021/05/01 23:02:42;;;;;;;38.13;23.50;;;;;;;;;;8326461;28;20078;-70
2021/05/01 23:06:49;;;;;;;41.38;25.85;;;;;;;;;;8310060;28;20366;-70
2021/05/01 23:10:53;;;;;;;38.58;24.92;;;;;;;;;;8308002;28;20481;-70
2021/05/01 23:14:59;;;;;;;46.85;26.92;;;;;;;;;;8325360;28;21298;-70
2021/05/01 23:19:03;;;;;;;42.28;25.38;;;;;;;;;;8324083;28;20060;-70
2021/05/01 23:23:08;;;;;;;44.50;26.30;;;;;;;;;;8325984;28;20375;-71
2021/05/01 23:27:13;;;;;;;46.30;26.33;;;;;;;;;;8325668;28;20075;-70
2021/05/01 23:31:17;;;;;;;41.67;25.73;;;;;;;;;;8292167;28;20067;-70
2021/05/01 23:35:23;;;;;;;39.90;23.63;;;;;;;;;;8324598;28;20435;-70
2021/05/01 23:39:28;;;;;;;38.08;23.35;;;;;;;;;;8324968;28;20383;-70
2021/05/01 23:43:35;;;;;;;41.60;24.10;;;;;;;;;;8325798;28;20466;-70
2021/05/01 23:47:43;;;;;;;40.20;24.65;;;;;;;;;;8326828;28;20437;-70
2021/05/01 23:51:48;;;;;;;34.58;22.65;;;;;;;;;;8324530;28;20451;-72
2021/05/01 23:55:53;;;;;;;37.33;22.27;;;;;;;;;;8273831;28;20389;-70
2021/05/01 23:59:57;;;;;;;33.60;22.27;;;;;;;;;;8324134;28;20552;-70
